createdAt,value
2022-11-28T00:01:35.520Z,3.25
2022-11-28T00:04:04.485Z,2.67
2022-11-28T00:06:32.356Z,2.40
2022-11-28T00:09:01.267Z,2.25
2022-11-28T00:11:29.164Z,2.67
2022-11-28T00:13:57.153Z,2.85
2022-11-28T00:16:25.388Z,4.30
2022-11-28T00:18:56.132Z,2.25
2022-11-28T00:21:25.983Z,2.08
2022-11-28T00:23:54.419Z,2.22
2022-11-28T00:26:25.539Z,4.15
2022-11-28T00:28:53.909Z,5.20
2022-11-28T00:31:23.892Z,5.53
2022-11-28T00:33:52.039Z,8.48
2022-11-28T00:36:22.453Z,6.22
2022-11-28T00:38:51.211Z,4.93
2022-11-28T00:41:22.250Z,4.57
2022-11-28T00:43:51.967Z,3.05
2022-11-28T00:46:21.520Z,2.65
2022-11-28T00:48:50.376Z,2.17
2022-11-28T00:51:20.144Z,2.00
2022-11-28T00:53:51.923Z,1.75
2022-11-28T00:56:21.946Z,1.70
2022-11-28T00:58:49.928Z,1.90
2022-11-28T01:01:20.123Z,2.55
2022-11-28T01:03:49.081Z,2.20
2022-11-28T01:06:23.196Z,1.80
2022-11-28T01:08:52.899Z,1.20
2022-11-28T01:11:21.252Z,1.65
2022-11-28T01:13:49.552Z,1.60
2022-11-28T01:16:17.994Z,1.25
2022-11-28T01:18:45.831Z,1.40
2022-11-28T01:21:13.737Z,2.38
2022-11-28T01:23:41.408Z,1.60
2022-11-28T01:26:12.496Z,1.45
2022-11-28T01:28:40.255Z,2.15
2022-11-28T01:31:10.047Z,1.83
2022-11-28T01:33:39.017Z,2.03
2022-11-28T01:36:07.380Z,1.20
2022-11-28T01:38:35.515Z,1.75
2022-11-28T01:41:03.331Z,2.50
2022-11-28T01:43:32.800Z,1.50
2022-11-28T01:46:00.572Z,2.83
2022-11-28T01:48:33.335Z,2.85
2022-11-28T01:51:04.044Z,1.27
2022-11-28T01:53:34.155Z,1.63
2022-11-28T01:56:07.243Z,1.55
2022-11-28T01:58:40.876Z,2.60
2022-11-28T02:01:09.431Z,2.05
2022-11-28T02:03:44.057Z,2.33
2022-11-28T02:06:13.957Z,2.50
2022-11-28T02:08:41.945Z,1.65
2022-11-28T02:11:38.163Z,2.30
2022-11-28T02:14:17.100Z,1.60
2022-11-28T02:16:57.956Z,1.48
2022-11-28T02:19:56.023Z,1.55
2022-11-28T02:22:26.492Z,2.08
2022-11-28T02:25:29.600Z,1.67
2022-11-28T02:28:39.413Z,2.08
2022-11-28T02:31:19.879Z,1.67
2022-11-28T02:33:53.951Z,1.45
2022-11-28T02:36:29.829Z,1.52
2022-11-28T02:39:10.576Z,1.70
2022-11-28T02:41:45.384Z,3.28
2022-11-28T02:44:17.726Z,1.35
2022-11-28T02:46:54.248Z,1.90
2022-11-28T02:49:28.553Z,1.38
2022-11-28T02:51:59.371Z,1.58
2022-11-28T02:54:28.360Z,1.23
2022-11-28T02:56:56.259Z,1.13
2022-11-28T02:59:33.156Z,2.05
2022-11-28T03:02:02.630Z,1.25
2022-11-28T03:04:41.879Z,1.52
2022-11-28T03:07:23.185Z,1.38
2022-11-28T03:10:01.992Z,1.10
2022-11-28T03:12:42.811Z,1.42
2022-11-28T03:15:13.196Z,1.75
2022-11-28T03:17:49.391Z,2.03
2022-11-28T03:20:23.827Z,1.35
2022-11-28T03:23:02.295Z,1.67
2022-11-28T03:25:35.387Z,2.17
2022-11-28T03:28:10.191Z,2.00
2022-11-28T03:30:43.136Z,1.50
2022-11-28T03:33:11.524Z,1.92
2022-11-28T03:35:47.884Z,1.83
2022-11-28T03:38:22.488Z,1.42
2022-11-28T03:40:54.911Z,2.90
2022-11-28T03:43:27.875Z,1.33
2022-11-28T03:45:59.408Z,1.67
2022-11-28T03:48:32.589Z,1.05
2022-11-28T03:51:07.971Z,1.80
2022-11-28T03:53:42.331Z,1.70
2022-11-28T03:56:15.997Z,2.42
2022-11-28T03:58:50.826Z,1.13
2022-11-28T04:01:26.886Z,1.98
2022-11-28T04:03:59.505Z,2.30
2022-11-28T04:06:36.023Z,2.50
2022-11-28T04:09:12.983Z,2.25
2022-11-28T04:11:46.196Z,2.05
2022-11-28T04:14:21.503Z,1.63
2022-11-28T04:16:55.792Z,1.45
2022-11-28T04:19:29.395Z,1.77
2022-11-28T04:22:04.408Z,1.95
2022-11-28T04:24:35.859Z,1.55
2022-11-28T04:27:07.455Z,1.55
2022-11-28T04:29:40.337Z,2.13
2022-11-28T04:32:11.581Z,1.30
2022-11-28T04:34:41.750Z,1.50
2022-11-28T04:37:14.405Z,1.55
2022-11-28T04:39:45.796Z,1.50
2022-11-28T04:42:18.102Z,2.33
2022-11-28T04:44:50.199Z,1.55
2022-11-28T04:47:18.895Z,1.13
2022-11-28T04:49:46.741Z,1.65
2022-11-28T04:52:21.301Z,0.88
2022-11-28T04:54:58.198Z,1.55
2022-11-28T04:57:31.844Z,1.35
2022-11-28T05:00:02.572Z,1.58
2022-11-28T05:02:31.372Z,1.58
2022-11-28T05:04:59.707Z,1.30
2022-11-28T05:07:28.913Z,1.00
2022-11-28T05:09:57.713Z,1.15
2022-11-28T05:12:25.617Z,1.13
2022-11-28T05:14:53.357Z,1.30
2022-11-28T05:17:21.124Z,1.63
2022-11-28T05:19:48.943Z,0.95
2022-11-28T05:22:16.784Z,1.08
2022-11-28T05:24:46.183Z,1.27
2022-11-28T05:27:14.021Z,2.00
2022-11-28T05:29:46.872Z,1.48
2022-11-28T05:32:17.408Z,1.75
2022-11-28T05:34:45.097Z,0.80
2022-11-28T05:37:12.873Z,1.83
2022-11-28T05:39:41.153Z,1.48
2022-11-28T05:42:10.446Z,2.55
2022-11-28T05:44:38.435Z,1.42
2022-11-28T05:47:06.383Z,1.70
2022-11-28T05:49:34.136Z,1.52
2022-11-28T05:52:01.850Z,1.17
2022-11-28T05:54:30.606Z,1.83
2022-11-28T05:56:58.375Z,0.80
2022-11-28T05:59:27.870Z,2.13
2022-11-28T06:01:55.703Z,2.38
2022-11-28T06:04:23.545Z,1.92
2022-11-28T06:06:51.939Z,1.73
2022-11-28T06:09:24.525Z,2.13
2022-11-28T06:11:53.422Z,2.10
2022-11-28T06:14:21.208Z,1.70
2022-11-28T06:16:50.371Z,1.42
2022-11-28T06:19:18.152Z,1.40
2022-11-28T06:21:45.988Z,1.60
2022-11-28T06:24:13.696Z,1.30
2022-11-28T06:26:41.470Z,1.23
2022-11-28T06:29:09.222Z,1.10
2022-11-28T06:31:37.300Z,1.80
2022-11-28T06:34:06.452Z,1.27
2022-11-28T06:36:35.098Z,1.70
2022-11-28T06:39:02.836Z,1.35
2022-11-28T06:41:30.601Z,0.77
2022-11-28T06:43:58.510Z,1.20
2022-11-28T06:46:26.385Z,1.63
2022-11-28T06:48:54.193Z,1.52
2022-11-28T06:51:23.325Z,1.00
2022-11-28T06:53:51.188Z,1.25
2022-11-28T06:56:21.079Z,1.35
2022-11-28T06:58:54.280Z,1.23
2022-11-28T07:01:23.718Z,2.05
2022-11-28T07:03:54.361Z,1.88
2022-11-28T07:06:25.267Z,1.15
2022-11-28T07:08:53.648Z,1.00
2022-11-28T07:11:23.646Z,1.00
2022-11-28T07:13:52.265Z,1.20
2022-11-28T07:16:21.769Z,1.17
2022-11-28T07:18:49.858Z,1.05
2022-11-28T07:21:18.010Z,1.40
2022-11-28T07:23:47.735Z,0.95
2022-11-28T07:26:17.410Z,1.63
2022-11-28T07:28:46.472Z,1.25
2022-11-28T07:31:17.154Z,1.52
2022-11-28T07:33:46.902Z,1.05
2022-11-28T07:36:16.074Z,1.20
2022-11-28T07:38:44.107Z,0.70
2022-11-28T07:41:14.776Z,1.25
2022-11-28T07:43:43.899Z,1.40
2022-11-28T07:46:14.213Z,1.05
2022-11-28T07:48:42.414Z,1.30
2022-11-28T07:51:12.580Z,0.98
2022-11-28T07:53:41.569Z,0.60
2022-11-28T07:56:13.919Z,1.27
2022-11-28T07:58:44.801Z,1.20
2022-11-28T08:01:14.415Z,1.13
2022-11-28T08:03:42.355Z,1.55
2022-11-28T08:06:10.381Z,1.05
2022-11-28T08:08:38.353Z,1.00
2022-11-28T08:11:08.279Z,0.77
2022-11-28T08:13:37.320Z,0.77
2022-11-28T08:16:08.276Z,1.15
2022-11-28T08:18:36.451Z,1.08
2022-11-28T08:21:05.872Z,1.45
2022-11-28T08:23:34.868Z,0.70
2022-11-28T08:26:02.815Z,1.02
2022-11-28T08:28:31.321Z,1.00
2022-11-28T08:30:59.579Z,1.20
2022-11-28T08:33:28.953Z,1.08
2022-11-28T08:35:56.727Z,0.90
2022-11-28T08:38:24.498Z,0.82
2022-11-28T08:40:52.841Z,1.65
2022-11-28T08:43:20.649Z,0.82
2022-11-28T08:45:49.410Z,1.02
2022-11-28T08:48:17.261Z,0.90
2022-11-28T08:50:49.108Z,1.10
2022-11-28T08:53:18.411Z,1.42
2022-11-28T08:55:46.694Z,0.70
2022-11-28T08:58:15.386Z,2.08
2022-11-28T09:00:43.412Z,0.80
2022-11-28T09:03:15.363Z,1.20
2022-11-28T09:05:45.282Z,0.73
2022-11-28T09:08:14.473Z,0.85
2022-11-28T09:10:43.852Z,0.88
2022-11-28T09:13:12.972Z,1.83
2022-11-28T09:15:41.846Z,0.98
2022-11-28T09:18:10.266Z,1.00
2022-11-28T09:20:38.593Z,1.25
2022-11-28T09:23:06.442Z,0.95
2022-11-28T09:25:37.512Z,1.00
2022-11-28T09:28:05.517Z,0.85
2022-11-28T09:30:34.139Z,1.27
2022-11-28T09:33:01.903Z,0.63
2022-11-28T09:35:29.638Z,1.30
2022-11-28T09:37:59.200Z,0.50
2022-11-28T09:40:32.665Z,0.52
2022-11-28T09:45:31.540Z,1.00
2022-11-28T09:48:08.070Z,1.70
2022-11-28T09:50:41.027Z,1.10
2022-11-28T09:53:21.260Z,0.75
2022-11-28T09:55:51.564Z,1.50
2022-11-28T09:58:28.400Z,0.70
2022-11-28T10:01:06.805Z,0.88
2022-11-28T10:03:43.267Z,0.75
2022-11-28T10:06:19.754Z,1.38
2022-11-28T10:09:03.884Z,1.23
2022-11-28T10:11:45.732Z,1.33
2022-11-28T10:14:41.993Z,2.65
2022-11-28T10:17:22.986Z,1.55
2022-11-28T10:19:56.058Z,1.10
2022-11-28T10:22:31.108Z,1.13
2022-11-28T10:25:05.180Z,1.40
2022-11-28T10:27:36.236Z,1.25
2022-11-28T10:30:09.449Z,1.02
2022-11-28T10:32:41.756Z,1.67
2022-11-28T10:35:28.071Z,0.90
2022-11-28T10:37:56.388Z,0.70
2022-11-28T10:40:31.871Z,1.17
2022-11-28T10:43:03.420Z,1.05
2022-11-28T10:45:42.978Z,0.82
2022-11-28T10:51:23.607Z,1.00
2022-11-28T10:54:01.468Z,0.80
2022-11-28T10:56:40.096Z,1.25
2022-11-28T10:59:17.808Z,0.70
2022-11-28T11:01:50.353Z,1.02
2022-11-28T11:04:20.837Z,0.70
2022-11-28T11:07:09.187Z,0.68
2022-11-28T11:09:40.763Z,0.80
2022-11-28T11:12:16.813Z,0.93
2022-11-28T11:14:45.154Z,0.90
2022-11-28T11:17:31.258Z,2.55
2022-11-28T11:20:02.896Z,1.35
2022-11-28T11:22:32.448Z,1.98
2022-11-28T11:25:08.620Z,1.20
2022-11-28T11:27:37.870Z,1.30
2022-11-28T11:30:18.774Z,1.23
2022-11-28T11:32:51.650Z,1.40
2022-11-28T11:35:23.349Z,1.42
2022-11-28T11:37:51.187Z,1.58
2022-11-28T11:40:25.725Z,0.60
2022-11-28T11:42:56.027Z,1.25
2022-11-28T11:45:30.721Z,1.30
2022-11-28T11:48:00.272Z,1.00
2022-11-28T11:50:30.567Z,0.85
2022-11-28T11:53:03.020Z,1.42
2022-11-28T11:55:32.755Z,1.23
2022-11-28T11:58:06.667Z,1.23
2022-11-28T12:00:38.936Z,0.77
2022-11-28T12:03:21.186Z,1.85
2022-11-28T12:08:46.175Z,0.70
2022-11-28T12:11:19.448Z,1.20
2022-11-28T12:13:47.549Z,1.90
2022-11-28T12:16:33.750Z,1.10
2022-11-28T12:19:14.528Z,1.30
2022-11-28T12:21:55.568Z,2.20
2022-11-28T12:24:34.624Z,0.90
2022-11-28T12:27:07.588Z,1.30
2022-11-28T12:29:46.423Z,1.58
2022-11-28T12:32:37.976Z,1.15
2022-11-28T12:35:22.041Z,1.30
2022-11-28T12:38:12.548Z,1.42
2022-11-28T12:40:54.446Z,1.05
2022-11-28T12:43:37.871Z,1.38
2022-11-28T12:46:14.743Z,1.33
2022-11-28T12:48:59.929Z,1.35
2022-11-28T12:51:39.139Z,1.52
2022-11-28T12:54:25.300Z,2.75
2022-11-28T12:57:01.754Z,1.38
2022-11-28T12:59:36.103Z,1.38
2022-11-28T13:02:22.573Z,1.13
2022-11-28T13:05:07.684Z,1.55
2022-11-28T13:07:44.616Z,1.73
2022-11-28T13:10:21.620Z,2.10
2022-11-28T13:12:58.125Z,1.23
2022-11-28T13:15:49.993Z,1.35
2022-11-28T13:18:32.920Z,2.53
2022-11-28T13:21:07.711Z,2.00
2022-11-28T13:23:45.077Z,1.17
2022-11-28T13:26:22.526Z,1.38
2022-11-28T13:28:57.205Z,0.57
2022-11-28T13:31:33.882Z,1.95
2022-11-28T13:34:02.122Z,1.02
2022-11-28T13:39:34.357Z,1.08
2022-11-28T13:45:03.299Z,1.20
2022-11-28T13:47:35.054Z,1.27
2022-11-28T13:50:39.540Z,0.88
2022-11-28T13:53:26.355Z,1.00
2022-11-28T13:56:24.349Z,1.13
2022-11-28T13:58:56.789Z,0.95
2022-11-28T14:01:26.016Z,1.13
2022-11-28T14:04:08.769Z,1.50
2022-11-28T14:06:44.567Z,1.93
2022-11-28T14:09:30.202Z,1.40
2022-11-28T14:12:19.204Z,3.17
2022-11-28T14:15:06.578Z,2.03
2022-11-28T14:17:55.185Z,1.98
2022-11-28T14:20:33.403Z,1.00
2022-11-28T14:23:16.988Z,1.00
2022-11-28T14:25:47.370Z,0.90
2022-11-28T14:28:24.502Z,1.05
2022-11-28T14:31:01.003Z,1.13
2022-11-28T14:33:36.745Z,0.75
2022-11-28T14:36:24.973Z,1.13
2022-11-28T14:39:20.519Z,1.20
2022-11-28T14:42:51.871Z,0.80
2022-11-28T14:45:44.472Z,0.80
2022-11-28T14:48:20.478Z,2.08
2022-11-28T14:50:56.200Z,1.00
2022-11-28T14:53:48.150Z,0.93
2022-11-28T14:56:29.771Z,0.80
2022-11-28T14:59:01.456Z,1.67
2022-11-28T15:01:47.131Z,1.38
2022-11-28T15:04:37.452Z,1.88
2022-11-28T15:07:11.745Z,2.00
2022-11-28T15:09:51.544Z,0.60
2022-11-28T15:12:27.752Z,1.48
2022-11-28T15:14:58.179Z,1.30
2022-11-28T15:17:33.353Z,1.15
2022-11-28T15:20:05.898Z,1.20
2022-11-28T15:22:40.328Z,1.20
2022-11-28T15:25:19.556Z,1.30
2022-11-28T15:27:47.529Z,1.02
2022-11-28T15:30:17.008Z,1.25
2022-11-28T15:32:46.913Z,1.25
2022-11-28T15:35:17.377Z,1.70
2022-11-28T15:37:49.454Z,1.23
2022-11-28T15:40:30.044Z,1.45
2022-11-28T15:42:59.828Z,1.23
2022-11-28T15:45:30.029Z,1.05
2022-11-28T15:48:00.036Z,1.05
2022-11-28T15:50:30.606Z,1.20
2022-11-28T15:53:00.833Z,1.10
2022-11-28T15:55:30.720Z,1.02
2022-11-28T15:58:12.408Z,1.00
2022-11-28T16:00:42.818Z,1.30
2022-11-28T16:03:17.066Z,1.38
2022-11-28T16:05:46.047Z,2.10
2022-11-28T16:08:23.397Z,1.98
2022-11-28T16:10:51.220Z,1.63
2022-11-28T16:13:24.308Z,1.70
2022-11-28T16:15:55.682Z,1.83
2022-11-28T16:18:27.515Z,2.97
2022-11-28T16:20:56.393Z,2.55
2022-11-28T16:23:30.043Z,3.05
2022-11-28T16:26:02.556Z,3.38
2022-11-28T16:28:33.237Z,3.10
2022-11-28T16:31:01.203Z,3.47
2022-11-28T16:33:38.844Z,3.72
2022-11-28T16:36:20.204Z,4.05
2022-11-28T16:38:49.254Z,4.45
2022-11-28T16:41:18.795Z,3.42
2022-11-28T16:43:50.330Z,3.25
2022-11-28T16:46:23.843Z,2.75
2022-11-28T16:51:37.991Z,2.05
2022-11-28T16:54:29.809Z,2.70
2022-11-28T16:57:08.744Z,3.38
2022-11-28T16:59:36.512Z,3.60
2022-11-28T17:02:04.720Z,3.90
2022-11-28T17:04:33.911Z,3.20
2022-11-28T17:07:05.276Z,3.28
2022-11-28T17:09:34.135Z,3.55
2022-11-28T17:12:05.450Z,3.97
2022-11-28T17:14:33.586Z,2.63
2022-11-28T17:17:01.400Z,3.42
2022-11-28T17:19:29.091Z,2.67
2022-11-28T17:22:00.917Z,4.32
2022-11-28T17:24:34.172Z,2.35
2022-11-28T17:27:02.396Z,3.67
2022-11-28T17:29:30.357Z,4.80
2022-11-28T17:31:58.884Z,4.40
2022-11-28T17:34:30.696Z,4.63
2022-11-28T17:37:00.517Z,4.28
2022-11-28T17:39:29.029Z,5.55
2022-11-28T17:41:59.101Z,5.65
2022-11-28T17:44:29.289Z,6.97
2022-11-28T17:46:58.840Z,8.07
2022-11-28T17:49:26.620Z,7.32
2022-11-28T17:51:55.897Z,6.18
2022-11-28T17:54:26.709Z,5.28
2022-11-28T17:56:55.223Z,6.93
2022-11-28T17:59:24.768Z,5.78
2022-11-28T18:01:52.655Z,5.05
2022-11-28T18:04:20.450Z,4.90
2022-11-28T18:06:48.731Z,5.38
2022-11-28T18:09:16.849Z,5.40
2022-11-28T18:11:46.385Z,4.75
2022-11-28T18:14:18.112Z,3.95
2022-11-28T18:16:47.287Z,3.22
2022-11-28T18:19:15.578Z,4.15
2022-11-28T18:21:43.343Z,3.92
2022-11-28T18:24:11.282Z,3.60
2022-11-28T18:26:38.965Z,4.55
2022-11-28T18:29:08.455Z,4.40
2022-11-28T18:31:36.460Z,5.22
2022-11-28T18:34:05.988Z,7.85
2022-11-28T18:36:35.599Z,6.43
2022-11-28T18:39:06.328Z,11.55
2022-11-28T18:41:34.033Z,9.15
2022-11-28T18:44:03.711Z,6.00
2022-11-28T18:46:34.121Z,4.60
2022-11-28T18:49:03.966Z,6.95
2022-11-28T18:51:33.904Z,7.13
2022-11-28T18:54:04.721Z,6.13
2022-11-28T18:56:32.817Z,3.83
2022-11-28T18:59:00.700Z,3.83
2022-11-28T19:01:30.703Z,5.07
2022-11-28T19:04:02.537Z,3.53
2022-11-28T19:06:30.736Z,3.85
2022-11-28T19:09:00.815Z,4.40
2022-11-28T19:11:29.622Z,3.47
2022-11-28T19:13:57.831Z,6.25
2022-11-28T19:16:27.989Z,4.25
2022-11-28T19:18:56.365Z,4.40
2022-11-28T19:21:27.637Z,4.30
2022-11-28T19:23:56.385Z,6.05
2022-11-28T19:26:26.270Z,6.55
2022-11-28T19:28:54.761Z,6.63
2022-11-28T19:31:24.301Z,7.00
2022-11-28T19:34:00.980Z,6.45
2022-11-28T19:36:31.929Z,5.32
2022-11-28T19:39:00.165Z,6.63
2022-11-28T19:41:29.833Z,4.32
2022-11-28T19:43:57.684Z,4.55
2022-11-28T19:46:29.226Z,3.65
2022-11-28T19:48:59.902Z,4.40
2022-11-28T19:51:27.727Z,3.88
2022-11-28T19:54:02.686Z,4.25
2022-11-28T19:56:31.370Z,3.45
2022-11-28T19:58:59.962Z,3.53
2022-11-28T20:01:28.042Z,4.30
2022-11-28T20:03:56.052Z,3.88
2022-11-28T20:06:25.784Z,3.53
2022-11-28T20:08:55.221Z,5.22
2022-11-28T20:11:26.196Z,3.38
2022-11-28T20:13:57.217Z,4.65
2022-11-28T20:16:25.306Z,4.47
2022-11-28T20:18:53.019Z,3.92
2022-11-28T20:21:21.701Z,6.25
2022-11-28T20:23:51.091Z,8.55
2022-11-28T20:26:21.292Z,8.88
2022-11-28T20:28:50.947Z,6.05
2022-11-28T20:31:20.636Z,7.13
2022-11-28T20:33:48.704Z,6.57
2022-11-28T20:36:18.600Z,6.35
2022-11-28T20:38:46.929Z,5.53
2022-11-28T20:41:15.775Z,5.95
2022-11-28T20:43:43.712Z,5.47
2022-11-28T20:46:14.356Z,5.40
2022-11-28T20:48:42.720Z,6.03
2022-11-28T20:51:11.243Z,5.15
2022-11-28T20:53:41.195Z,4.65
2022-11-28T20:56:12.278Z,5.88
2022-11-28T20:58:40.251Z,4.10
2022-11-28T21:01:08.118Z,5.20
2022-11-28T21:03:37.852Z,4.80
2022-11-28T21:06:05.647Z,7.40
2022-11-28T21:08:33.818Z,5.95
2022-11-28T21:11:05.907Z,5.70
2022-11-28T21:13:33.651Z,5.18
2022-11-28T21:16:06.253Z,5.47
2022-11-28T21:18:34.483Z,4.38
2022-11-28T21:21:08.003Z,4.88
2022-11-28T21:26:08.469Z,5.28
2022-11-28T21:28:36.912Z,5.27
2022-11-28T21:31:07.784Z,5.70
2022-11-28T21:33:35.616Z,5.57
2022-11-28T21:36:06.848Z,5.07
2022-11-28T21:38:35.160Z,5.28
2022-11-28T21:41:03.254Z,4.40
2022-11-28T21:43:31.393Z,4.22
2022-11-28T21:46:03.101Z,4.35
2022-11-28T21:48:32.079Z,5.40
2022-11-28T21:51:00.300Z,4.10
2022-11-28T21:53:30.093Z,5.10
2022-11-28T21:56:01.736Z,4.95
2022-11-28T21:58:30.744Z,4.70
2022-11-28T22:00:59.300Z,4.20
2022-11-28T22:03:28.011Z,5.75
2022-11-28T22:06:01.090Z,6.20
2022-11-28T22:08:30.683Z,5.30
2022-11-28T22:11:00.908Z,3.67
2022-11-28T22:13:29.231Z,4.78
2022-11-28T22:15:57.261Z,3.70
2022-11-28T22:18:25.307Z,4.35
2022-11-28T22:20:53.324Z,6.00
2022-11-28T22:23:21.192Z,3.83
2022-11-28T22:25:53.653Z,4.53
2022-11-28T22:28:21.511Z,5.78
2022-11-28T22:30:49.267Z,4.03
2022-11-28T22:33:17.154Z,3.92
2022-11-28T22:35:45.552Z,4.40
2022-11-28T22:38:13.718Z,5.18
2022-11-28T22:40:41.582Z,4.20
2022-11-28T22:43:10.779Z,3.58
2022-11-28T22:45:38.621Z,4.50
2022-11-28T22:48:07.221Z,4.07
2022-11-28T22:50:39.979Z,3.58
2022-11-28T22:53:08.014Z,4.15
2022-11-28T22:55:36.204Z,3.65
2022-11-28T22:58:03.902Z,4.05
2022-11-28T23:00:33.043Z,4.22
2022-11-28T23:03:00.937Z,3.67
2022-11-28T23:05:28.752Z,3.10
2022-11-28T23:07:56.733Z,3.95
2022-11-28T23:10:25.477Z,3.83
2022-11-28T23:12:53.188Z,3.85
2022-11-28T23:15:21.292Z,3.30
2022-11-28T23:17:51.017Z,4.63
2022-11-28T23:20:19.150Z,4.65
2022-11-28T23:22:46.875Z,4.88
2022-11-28T23:25:15.345Z,3.15
2022-11-28T23:27:43.113Z,3.97
2022-11-28T23:30:11.680Z,3.78
2022-11-28T23:32:39.399Z,4.22
2022-11-28T23:35:09.254Z,4.90
2022-11-28T23:37:39.336Z,5.15
2022-11-28T23:40:08.616Z,4.50
2022-11-28T23:42:36.284Z,4.78
2022-11-28T23:45:04.361Z,5.03
2022-11-28T23:47:32.581Z,4.82
2022-11-28T23:50:00.341Z,6.40
2022-11-28T23:52:29.516Z,4.25
2022-11-28T23:54:57.227Z,4.95
2022-11-28T23:57:24.996Z,5.40
2022-11-28T23:59:52.836Z,5.35
